Marfret Guyane — FNMV — position and weather

sailwx.info

Track history (hours):
 
Tides and Currents Weather Stations Pressure Air Temp Water Temp Dewpoint Dewpoint Depression Visibility Wind Speed Wind Dir Waves Ship Positions

Marfret Guyane

Last reported at 2015-Feb-14 10:25 UTC. Time now 2015-Mar-04 07:01 UTC.
Position N 16°11' W 062°52'.
Warning: this ship's position is 17 days out of date.

Length 170 m; draft 9.1 m.

Type: Ship (hazmat cat A). MMSI: 226324000.

Date/timePositionNaut miles runAvg speedWind from/ knotsBaromVisibWave heightAir tempDewpointWater temp
2015-Feb-14 10:25N 16°11' W 062°52'  
2015-Feb-07 19:33N 36°47' W 026°41'1717.4
2015-Feb-07 18:34N 36°55' W 026°22'1717.5
2015-Feb-07 17:34N 37°04' W 026°03'1717.4
2015-Feb-07 16:34N 37°13' W 025°44'1717.2
2015-Feb-07 15:34N 37°22' W 025°26'1717.2
2015-Feb-07 14:34N 37°31' W 025°07'1717.3
2015-Feb-07 13:34N 37°41' W 024°50'1717.2
2015-Feb-07 12:34N 37°52' W 024°33'1817.8
2015-Feb-07 11:34N 38°04' W 024°16'1817.8
2015-Feb-07 10:33N 38°15' W 023°58'  
2015-Feb-04 14:34N 49°39' W 000°33'1919.3
2015-Feb-04 13:34N 49°31' W 000°06'1110.3
2015-Feb-04 12:31N 49°29' E 000°10'0 0.0
2015-Feb-04 11:31N 49°29' E 000°10'0 0.0
2015-Feb-04 10:31N 49°29' E 000°10'  
Track history (hours):
 
Tides and Currents Weather Stations Pressure Air Temp Water Temp Dewpoint Dewpoint Depression Visibility Wind Speed Wind Dir Waves Ship Positions

Marfret Guyane

Last reported at 2015-Feb-14 10:25 UTC. Time now 2015-Mar-04 07:01 UTC.
Position N 16°11' W 062°52'.
Warning: this ship's position is 17 days out of date.

Length 170 m; draft 9.1 m.

Type: Ship (hazmat cat A). MMSI: 226324000.

Date/timePositionNaut miles runAvg speedWind from/ knotsBaromVisibWave heightAir tempDewpointWater temp
2015-Feb-14 10:25N 16°11' W 062°52'  
2015-Feb-07 19:33N 36°47' W 026°41'1717.4
2015-Feb-07 18:34N 36°55' W 026°22'1717.5
2015-Feb-07 17:34N 37°04' W 026°03'1717.4
2015-Feb-07 16:34N 37°13' W 025°44'1717.2
2015-Feb-07 15:34N 37°22' W 025°26'1717.2
2015-Feb-07 14:34N 37°31' W 025°07'1717.3
2015-Feb-07 13:34N 37°41' W 024°50'1717.2
2015-Feb-07 12:34N 37°52' W 024°33'1817.8
2015-Feb-07 11:34N 38°04' W 024°16'1817.8
2015-Feb-07 10:33N 38°15' W 023°58'  
2015-Feb-04 14:34N 49°39' W 000°33'1919.3
2015-Feb-04 13:34N 49°31' W 000°06'1110.3
2015-Feb-04 12:31N 49°29' E 000°10'0 0.0
2015-Feb-04 11:31N 49°29' E 000°10'0 0.0
2015-Feb-04 10:31N 49°29' E 000°10'  

Dump ship's entire track history